Time;durP1;ratioP1;P1;durP2;ratioP2;P2;SDS_P1;SDS_P2;PMS_P1;PMS_P2;Temp;Humidity;BMP_temperature;BMP_pressure;BME280_temperature;BME280_humidity;BME280_pressure;Samples;Min_cycle;Max_cycle;Signal;HPM_P1;HPM_P2
2021/06/10 00:01:39;;;;;;;7.00;6.22;;;;;;;16.01;69.47;100149.91;5029301;28;20029;-68
2021/06/10 00:04:04;;;;;;;7.95;6.00;;;;;;;16.02;69.16;100143.66;5029453;28;20044;-68
2021/06/10 00:06:30;;;;;;;7.72;6.25;;;;;;;15.99;69.12;100149.16;5030621;28;20485;-68
2021/06/10 00:08:55;;;;;;;7.38;6.43;;;;;;;15.97;68.96;100152.88;5032463;28;20042;-67
2021/06/10 00:11:20;;;;;;;9.50;7.70;;;;;;;15.94;68.76;100153.94;5031222;28;20032;-67
2021/06/10 00:13:46;;;;;;;9.32;6.90;;;;;;;15.91;68.58;100153.28;5032812;28;20104;-69
2021/06/10 00:16:11;;;;;;;8.70;6.28;;;;;;;15.84;68.72;100147.50;5032227;28;20392;-68
2021/06/10 00:18:36;;;;;;;7.40;5.50;;;;;;;15.84;68.46;100163.47;5029881;28;20088;-68
2021/06/10 00:21:02;;;;;;;6.65;5.70;;;;;;;15.81;68.58;100158.34;5032715;28;20029;-68
2021/06/10 00:23:27;;;;;;;5.78;5.07;;;;;;;15.78;68.46;100156.75;5032763;28;20046;-68
2021/06/10 00:25:53;;;;;;;7.20;5.72;;;;;;;15.78;68.25;100159.41;5032128;28;20120;-68
2021/06/10 00:28:18;;;;;;;9.48;7.53;;;;;;;15.73;68.95;100164.16;5031552;28;20459;-68
2021/06/10 00:30:43;;;;;;;13.02;6.72;;;;;;;15.68;69.06;100164.44;5032491;28;20459;-68
2021/06/10 00:33:10;;;;;;;8.60;6.47;;;;;;;15.70;68.85;100166.16;5032727;28;20032;-67
2021/06/10 00:35:36;;;;;;;11.52;7.38;;;;;;;15.70;68.85;100169.66;5032217;28;20051;-67
2021/06/10 00:38:02;;;;;;;8.15;7.35;;;;;;;15.70;68.74;100166.16;5031975;28;20037;-70
2021/06/10 00:40:31;;;;;;;7.50;6.65;;;;;;;15.68;68.84;100160.94;5032427;28;20086;-68
2021/06/10 00:42:58;;;;;;;7.82;7.00;;;;;;;15.68;68.75;100164.44;5032842;28;20053;-67
2021/06/10 00:45:25;;;;;;;10.30;6.97;;;;;;;15.65;69.28;100164.63;5032929;28;20029;-67
2021/06/10 00:47:51;;;;;;;10.80;8.52;;;;;;;15.63;69.09;100158.56;5034223;28;20037;-68
2021/06/10 00:50:36;;;;;;;9.00;7.97;;;;;;;15.60;69.44;100161.44;5033203;28;20026;-70
2021/06/10 00:53:02;;;;;;;7.70;6.90;;;;;;;15.57;69.31;100153.63;5032610;28;20112;-69
2021/06/10 00:55:28;;;;;;;10.25;8.68;;;;;;;15.55;69.48;100157.34;5031708;28;20125;-69
2021/06/10 00:57:54;;;;;;;10.90;9.75;;;;;;;15.52;69.86;100154.88;5031903;28;20033;-68
2021/06/10 01:00:20;;;;;;;10.98;9.85;;;;;;;15.44;70.13;100153.56;5032263;28;20577;-69
2021/06/10 01:02:45;;;;;;;11.93;9.50;;;;;;;15.43;70.00;100154.53;4999481;28;20040;-68
2021/06/10 01:05:11;;;;;;;10.98;9.93;;;;;;;15.44;70.17;100163.34;5031264;28;20033;-68
2021/06/10 01:07:53;;;;;;;8.90;8.05;;;;;;;15.42;70.11;100157.25;5031468;28;20037;-68
2021/06/10 01:10:44;;;;;;;8.30;7.43;;;;;;;15.41;69.98;100158.22;5031004;28;20056;-68
2021/06/10 01:13:22;;;;;;;8.60;7.68;;;;;;;15.41;70.00;100155.56;5026084;28;20111;-67
2021/06/10 01:15:54;;;;;;;8.68;7.70;;;;;;;15.39;70.11;100155.66;5031080;28;20496;-69
2021/06/10 01:18:21;;;;;;;7.47;6.78;;;;;;;15.38;70.19;100151.31;5031712;28;20068;-68
2021/06/10 01:20:47;;;;;;;9.05;8.13;;;;;;;15.37;70.00;100154.91;5031494;28;20046;-68
2021/06/10 01:23:31;;;;;;;8.98;8.07;;;;;;;15.37;69.75;100151.41;5031074;28;20046;-68
2021/06/10 01:26:09;;;;;;;8.07;6.90;;;;;;;15.36;69.86;100155.00;5031027;28;20103;-68
2021/06/10 01:28:36;;;;;;;9.85;7.40;;;;;;;15.34;69.74;100152.44;5031275;28;20041;-68
2021/06/10 01:31:06;;;;;;;10.20;8.55;;;;;;;15.31;70.12;100154.44;5031470;28;20029;-68
2021/06/10 01:33:41;;;;;;;11.45;10.35;;;;;;;15.24;70.47;100157.47;5031486;28;20086;-68
2021/06/10 01:36:24;;;;;;;13.25;10.10;;;;;;;15.23;70.50;100153.13;5030918;28;20044;-67
2021/06/10 01:38:53;;;;;;;13.13;10.55;;;;;;;15.19;70.30;100153.41;5030956;28;20496;-68
2021/06/10 01:41:21;;;;;;;14.93;10.88;;;;;;;15.11;70.58;100148.59;5031305;28;20382;-68
2021/06/10 01:43:47;;;;;;;12.50;10.60;;;;;;;15.03;70.94;100138.41;5030955;28;20441;-67
2021/06/10 01:46:13;;;;;;;11.43;10.25;;;;;;;15.02;70.98;100133.22;5031049;28;20068;-67
2021/06/10 01:48:45;;;;;;;10.45;9.02;;;;;;;15.01;70.81;100135.03;5031102;28;20045;-67
2021/06/10 01:51:11;;;;;;;16.80;10.90;;;;;;;14.98;70.46;100135.19;5030690;28;20037;-67
2021/06/10 01:53:38;;;;;;;11.48;10.27;;;;;;;14.97;70.93;100138.81;5031156;28;20055;-68
2021/06/10 01:56:05;;;;;;;12.13;8.65;;;;;;;14.95;71.02;100127.44;5031138;28;20030;-68
2021/06/10 01:58:31;;;;;;;10.80;9.23;;;;;;;14.95;71.09;100137.19;5030952;28;20083;-68
2021/06/10 02:01:00;;;;;;;29.52;9.30;;;;;;;14.90;70.80;100129.50;5031351;28;20033;-67
2021/06/10 02:03:27;;;;;;;13.85;8.52;;;;;;;14.88;70.98;100127.91;5030625;28;20057;-68
2021/06/10 02:05:53;;;;;;;12.02;9.13;;;;;;;14.88;70.97;100126.09;5030850;28;20038;-68
2021/06/10 02:08:20;;;;;;;11.05;8.40;;;;;;;14.84;70.42;100131.69;5030612;28;20038;-68
2021/06/10 02:10:50;;;;;;;11.88;7.88;;;;;;;14.81;70.01;100119.44;5030798;28;20041;-68
2021/06/10 02:13:18;;;;;;;8.20;7.40;;;;;;;14.77;70.57;100121.47;5030824;28;20035;-68
2021/06/10 02:15:44;;;;;;;12.57;8.95;;;;;;;14.75;70.24;100119.84;5030497;28;20052;-68
2021/06/10 02:18:12;;;;;;;9.18;7.70;;;;;;;14.71;70.57;100116.50;5030878;28;20029;-68
2021/06/10 02:20:37;;;;;;;12.45;8.68;;;;;;;14.67;70.66;100117.66;5030319;28;20038;-68
2021/06/10 02:23:02;;;;;;;9.07;7.95;;;;;;;14.62;70.13;100118.88;5031388;28;20037;-68
2021/06/10 02:25:28;;;;;;;8.88;8.00;;;;;;;14.58;70.34;100119.06;5030551;28;20037;-68
2021/06/10 02:27:53;;;;;;;10.25;7.70;;;;;;;14.57;70.38;100121.78;5031568;28;20500;-70
2021/06/10 02:30:19;;;;;;;10.77;8.60;;;;;;;14.54;70.39;100116.69;5034115;28;20508;-70
2021/06/10 02:32:45;;;;;;;7.47;6.68;;;;;;;14.53;69.98;100118.50;5031803;28;20067;-68
2021/06/10 02:35:12;;;;;;;8.27;6.60;;;;;;;14.53;69.52;100114.97;5030441;28;20056;-69
2021/06/10 02:37:39;;;;;;;11.45;6.30;;;;;;;14.53;69.02;100121.13;5029837;28;20032;-70
2021/06/10 02:40:09;;;;;;;7.00;6.30;;;;;;;14.53;69.33;100122.91;5032430;28;20136;-70
2021/06/10 02:42:36;;;;;;;12.10;6.65;;;;;;;14.54;68.85;100125.47;5032739;28;20461;-70
2021/06/10 02:45:03;;;;;;;11.40;7.38;;;;;;;14.55;69.11;100124.56;5032124;28;20108;-69
2021/06/10 02:47:28;;;;;;;7.65;6.85;;;;;;;14.57;68.74;100127.09;5031052;28;20033;-69
2021/06/10 02:49:54;;;;;;;8.27;6.93;;;;;;;14.63;68.90;100123.25;5031373;28;20037;-69
2021/06/10 02:52:21;;;;;;;11.00;7.28;;;;;;;14.60;68.60;100125.13;5031301;28;20082;-67
2021/06/10 02:54:48;;;;;;;10.07;7.15;;;;;;;14.58;68.59;100119.06;5031047;28;20045;-69
2021/06/10 02:57:15;;;;;;;6.75;6.05;;;;;;;14.59;68.61;100114.59;5028795;28;20030;-70
2021/06/10 02:59:43;;;;;;;7.68;6.47;;;;;;;14.54;68.56;100116.69;5029460;28;20036;-68
2021/06/10 03:02:09;;;;;;;8.48;7.47;;;;;;;14.49;68.58;100108.97;5029940;28;20535;-68
2021/06/10 03:04:35;;;;;;;8.77;6.57;;;;;;;14.44;68.73;100108.38;5030648;28;20091;-68
2021/06/10 03:07:01;;;;;;;8.57;6.50;;;;;;;14.43;68.45;100105.84;5030011;28;20029;-68
2021/06/10 03:09:27;;;;;;;7.43;6.63;;;;;;;14.39;69.10;100106.00;5030678;28;20420;-68
2021/06/10 03:11:54;;;;;;;7.78;7.03;;;;;;;14.34;68.79;100105.44;5030456;28;20432;-67
2021/06/10 03:14:20;;;;;;;13.90;6.97;;;;;;;14.29;69.24;100104.00;5029002;28;20489;-67
2021/06/10 03:16:47;;;;;;;7.18;6.47;;;;;;;14.27;69.21;100097.94;5030390;28;20049;-70
2021/06/10 03:19:16;;;;;;;8.52;6.70;;;;;;;14.23;69.47;100101.72;5030247;28;20025;-68
2021/06/10 03:21:42;;;;;;;9.02;6.38;;;;;;;14.21;69.67;100096.50;5029655;28;20029;-67
2021/06/10 03:24:08;;;;;;;9.23;6.43;;;;;;;14.18;69.32;100100.19;5029700;28;20039;-67
2021/06/10 03:26:35;;;;;;;6.57;5.90;;;;;;;14.18;69.40;100097.53;5029576;28;20033;-68
2021/06/10 03:29:02;;;;;;;6.25;5.65;;;;;;;14.15;69.17;100099.50;5028890;28;20069;-69
2021/06/10 03:31:28;;;;;;;8.25;6.00;;;;;;;14.18;69.21;100099.34;5029514;28;20033;-68
2021/06/10 03:33:54;;;;;;;11.70;6.50;;;;;;;14.21;69.00;100103.63;5029382;28;20045;-69
2021/06/10 03:36:20;;;;;;;8.95;6.75;;;;;;;14.21;68.84;100106.28;5027531;28;20030;-68
2021/06/10 03:38:48;;;;;;;9.00;6.90;;;;;;;14.24;68.28;100106.09;5029063;28;20063;-68
2021/06/10 03:41:15;;;;;;;8.32;6.55;;;;;;;14.24;69.00;100098.97;5030635;28;20036;-69
2021/06/10 03:43:42;;;;;;;6.35;5.32;;;;;;;14.26;68.50;100105.03;5033298;28;20435;-69
2021/06/10 03:46:09;;;;;;;9.95;6.38;;;;;;;14.25;68.50;100105.13;5032324;28;20033;-69
2021/06/10 03:48:38;;;;;;;7.85;6.80;;;;;;;14.25;68.76;100106.00;5033175;28;20069;-68
2021/06/10 03:51:15;;;;;;;6.30;5.70;;;;;;;14.27;68.78;100120.00;5033246;28;20038;-69
2021/06/10 03:53:42;;;;;;;7.07;6.20;;;;;;;14.31;68.06;100110.94;5032920;28;20032;-69
2021/06/10 03:56:08;;;;;;;11.32;6.72;;;;;;;14.28;67.81;100105.81;5032626;28;20492;-69
2021/06/10 03:58:33;;;;;;;7.25;6.22;;;;;;;14.26;68.30;100104.19;5033623;28;20048;-69
2021/06/10 04:00:59;;;;;;;7.80;7.00;;;;;;;14.25;68.30;100098.03;5032958;28;20037;-69
2021/06/10 04:03:24;;;;;;;10.43;7.53;;;;;;;14.24;68.57;100103.44;5032746;28;20033;-69
2021/06/10 04:05:49;;;;;;;12.07;7.25;;;;;;;14.26;68.47;100102.41;5032657;28;20049;-69
2021/06/10 04:08:15;;;;;;;6.55;5.85;;;;;;;14.30;67.80;100103.06;5032612;28;20120;-69
2021/06/10 04:10:41;;;;;;;7.10;6.40;;;;;;;14.32;68.27;100110.00;5032396;28;20026;-69
2021/06/10 04:13:06;;;;;;;8.93;6.05;;;;;;;14.34;68.48;100107.22;5033425;28;20148;-69
2021/06/10 04:15:31;;;;;;;6.97;5.90;;;;;;;14.39;68.43;100108.66;5032318;28;20052;-69
2021/06/10 04:17:57;;;;;;;7.03;6.32;;;;;;;14.43;68.21;100114.66;5032812;28;20033;-69
2021/06/10 04:20:22;;;;;;;7.10;6.05;;;;;;;14.47;67.89;100112.66;5032992;28;20422;-69
2021/06/10 04:22:48;;;;;;;7.82;6.97;;;;;;;14.52;67.76;100114.09;5033919;28;20705;-69
2021/06/10 04:25:14;;;;;;;7.97;7.18;;;;;;;14.55;67.76;100105.97;5033054;28;20033;-68
2021/06/10 04:27:39;;;;;;;8.48;5.68;;;;;;;14.61;67.22;100112.72;5034230;28;20095;-68
2021/06/10 04:30:08;;;;;;;11.20;7.88;;;;;;;14.70;67.35;100104.19;5033710;28;20029;-69
2021/06/10 04:32:33;;;;;;;11.00;6.85;;;;;;;14.75;67.18;100111.88;5033196;28;20033;-69
2021/06/10 04:34:59;;;;;;;13.50;8.60;;;;;;;14.82;66.97;100108.75;5032808;28;20029;-68
2021/06/10 04:37:24;;;;;;;11.57;7.70;;;;;;;14.88;66.95;100106.66;5032060;28;20026;-69
2021/06/10 04:39:49;;;;;;;8.38;7.47;;;;;;;14.97;66.42;100103.44;5032315;28;20041;-68
2021/06/10 04:42:15;;;;;;;9.60;7.40;;;;;;;15.05;66.47;100095.84;5032391;28;20037;-68
2021/06/10 04:44:40;;;;;;;9.98;7.53;;;;;;;15.15;66.44;100099.63;5032223;28;20168;-69
2021/06/10 04:47:06;;;;;;;9.60;6.47;;;;;;;15.25;66.42;100099.88;5032012;28;20026;-69
2021/06/10 04:49:35;;;;;;;7.90;6.57;;;;;;;15.35;66.03;100101.00;5032035;28;20029;-68
2021/06/10 04:52:01;;;;;;;11.52;7.15;;;;;;;15.41;65.93;100095.31;5031571;28;20025;-68
2021/06/10 04:54:27;;;;;;;11.18;8.07;;;;;;;15.50;66.18;100098.31;5032163;28;20460;-69
2021/06/10 04:56:52;;;;;;;11.35;8.63;;;;;;;15.59;65.67;100095.06;5032140;28;20427;-69
2021/06/10 04:59:17;;;;;;;8.85;7.20;;;;;;;15.73;65.52;100102.19;5031742;28;20033;-69
2021/06/10 05:01:43;;;;;;;9.57;8.10;;;;;;;15.90;64.96;100109.91;5030264;28;20070;-69
2021/06/10 05:04:08;;;;;;;9.52;8.50;;;;;;;16.08;64.40;100107.81;5030447;28;20029;-69
2021/06/10 05:06:35;;;;;;;10.35;8.60;;;;;;;16.33;63.74;100109.66;5031623;28;20041;-69
2021/06/10 05:09:01;;;;;;;14.60;9.80;;;;;;;16.56;62.81;100105.41;5030129;28;20512;-69
2021/06/10 05:11:26;;;;;;;11.98;9.32;;;;;;;16.81;62.40;100107.28;5032052;28;20039;-69
2021/06/10 05:13:52;;;;;;;8.65;7.72;;;;;;;17.08;61.86;100107.16;5031737;28;20038;-69
2021/06/10 05:16:17;;;;;;;10.02;8.00;;;;;;;17.36;61.59;100110.50;5031694;28;20033;-69
2021/06/10 05:18:42;;;;;;;13.20;9.43;;;;;;;17.51;60.87;100120.03;5032297;28;20444;-69
2021/06/10 05:21:08;;;;;;;11.07;7.70;;;;;;;17.75;60.22;100119.22;5031439;28;20033;-69
2021/06/10 05:23:33;;;;;;;11.23;9.70;;;;;;;17.92;59.36;100123.34;5030256;28;20623;-68
2021/06/10 05:25:59;;;;;;;12.20;8.75;;;;;;;18.16;58.85;100124.16;5030975;28;20414;-68
2021/06/10 05:28:24;;;;;;;18.42;9.43;;;;;;;18.41;58.07;100117.81;5030862;28;20029;-68
2021/06/10 05:30:50;;;;;;;12.73;9.57;;;;;;;18.57;58.05;100114.78;5031207;28;20536;-67
2021/06/10 05:33:15;;;;;;;10.57;7.93;;;;;;;18.74;57.09;100116.16;5031182;28;20113;-66
2021/06/10 05:35:40;;;;;;;10.65;9.55;;;;;;;18.90;56.88;100120.31;5031322;28;20493;-68
2021/06/10 05:38:06;;;;;;;12.13;8.75;;;;;;;19.19;56.67;100115.34;5030805;28;20029;-68
2021/06/10 05:40:31;;;;;;;8.90;7.55;;;;;;;19.57;55.42;100104.22;5030752;28;20041;-68
2021/06/10 05:42:57;;;;;;;10.30;9.18;;;;;;;20.00;54.42;100102.53;5031081;28;20038;-68
2021/06/10 05:45:23;;;;;;;9.93;7.82;;;;;;;20.33;53.92;100107.72;5030538;28;20034;-68
2021/06/10 05:47:48;;;;;;;11.70;10.48;;;;;;;20.57;52.78;100107.47;5031075;28;20122;-68
2021/06/10 05:50:14;;;;;;;9.50;7.28;;;;;;;20.70;53.06;100109.97;5031234;28;20029;-68
2021/06/10 05:52:40;;;;;;;11.27;8.25;;;;;;;20.94;52.31;100109.63;5030718;28;20040;-68
2021/06/10 05:55:07;;;;;;;10.50;7.45;;;;;;;21.11;51.86;100108.16;5030092;28;20673;-67
2021/06/10 05:57:33;;;;;;;9.10;8.02;;;;;;;21.31;51.50;100109.06;5030246;28;20443;-67
2021/06/10 05:59:58;;;;;;;12.38;9.52;;;;;;;21.38;51.83;100112.06;5030589;28;20112;-67
2021/06/10 06:02:23;;;;;;;11.90;7.40;;;;;;;21.50;51.72;100115.53;5030654;28;20075;-68
2021/06/10 06:04:49;;;;;;;20.85;7.90;;;;;;;21.82;50.70;100124.19;5029662;28;20045;-68
2021/06/10 06:07:14;;;;;;;12.85;8.32;;;;;;;22.14;49.80;100120.38;5028726;28;20060;-68
2021/06/10 06:09:40;;;;;;;14.43;8.13;;;;;;;22.44;49.00;100114.00;5030276;28;20033;-68
2021/06/10 06:12:12;;;;;;;9.20;8.10;;;;;;;22.51;48.72;100107.06;5030464;28;20566;-68
2021/06/10 06:14:39;;;;;;;13.10;7.88;;;;;;;22.55;49.39;100104.97;5030574;28;20036;-66
2021/06/10 06:17:05;;;;;;;11.55;8.65;;;;;;;22.80;49.04;100106.16;5030082;28;20040;-68
2021/06/10 06:19:32;;;;;;;11.57;9.13;;;;;;;23.12;48.29;100103.09;5030716;28;20068;-68
2021/06/10 06:21:57;;;;;;;12.52;8.32;;;;;;;23.35;47.91;100105.38;5030379;28;20517;-68
2021/06/10 06:24:23;;;;;;;11.63;7.82;;;;;;;23.35;47.81;100106.22;5030861;28;20045;-69
2021/06/10 06:26:48;;;;;;;11.75;8.60;;;;;;;23.38;47.09;100109.63;5030654;28;20030;-68
2021/06/10 06:29:14;;;;;;;8.48;7.63;;;;;;;23.36;47.82;100107.94;5030647;28;20042;-67
2021/06/10 06:31:39;;;;;;;10.25;8.63;;;;;;;23.35;47.79;100100.84;5030365;28;20032;-69
2021/06/10 06:34:05;;;;;;;11.95;8.77;;;;;;;23.41;48.06;100104.78;5030118;28;20121;-67
2021/06/10 06:36:30;;;;;;;9.60;7.47;;;;;;;23.59;47.13;100110.19;5029707;28;20056;-67
2021/06/10 06:38:57;;;;;;;11.13;9.88;;;;;;;23.75;45.53;100105.03;5030014;28;20057;-68
2021/06/10 06:41:23;;;;;;;9.57;8.57;;;;;;;23.91;44.22;100106.19;5030067;28;20060;-68
2021/06/10 06:43:48;;;;;;;10.23;9.15;;;;;;;24.13;43.18;100110.25;5030304;28;20041;-68
2021/06/10 06:46:14;;;;;;;9.82;7.82;;;;;;;24.39;43.39;100112.97;5030173;28;20034;-68
2021/06/10 06:48:39;;;;;;;18.48;8.73;;;;;;;24.57;43.42;100108.44;5030121;28;20076;-68
2021/06/10 06:51:06;;;;;;;7.90;6.38;;;;;;;24.58;40.63;100103.88;5030183;28;20130;-68
2021/06/10 06:53:33;;;;;;;5.50;4.95;;;;;;;24.72;39.42;100105.16;5030162;28;20034;-68
2021/06/10 06:56:00;;;;;;;7.28;5.25;;;;;;;24.89;38.96;100106.97;5029986;28;20489;-69
2021/06/10 06:58:25;;;;;;;5.57;4.57;;;;;;;25.01;38.08;100110.22;5030973;28;20098;-69
2021/06/10 07:00:52;;;;;;;9.88;3.90;;;;;;;25.01;37.13;100112.91;5030944;28;20148;-69
2021/06/10 07:03:18;;;;;;;8.05;4.22;;;;;;;25.02;37.47;100110.03;5030247;28;20116;-67
2021/06/10 07:05:43;;;;;;;5.20;3.72;;;;;;;24.96;36.43;100121.50;5030404;28;20077;-68
2021/06/10 07:08:08;;;;;;;7.78;3.80;;;;;;;25.08;36.02;100113.97;5029711;28;20040;-67
2021/06/10 07:10:34;;;;;;;10.60;3.40;;;;;;;25.05;35.67;100116.97;5029926;28;20413;-68
2021/06/10 07:12:59;;;;;;;4.88;2.50;;;;;;;25.39;35.10;100113.44;5029910;28;20045;-68
2021/06/10 07:15:24;;;;;;;6.13;3.45;;;;;;;25.57;34.58;100107.91;5029515;28;20029;-68
2021/06/10 07:17:50;;;;;;;3.80;3.13;;;;;;;25.60;34.96;100110.31;5030006;28;20111;-68
2021/06/10 07:20:15;;;;;;;4.63;3.65;;;;;;;25.79;34.76;100118.09;5030252;28;20124;-68
2021/06/10 07:22:41;;;;;;;7.72;5.05;;;;;;;25.77;34.86;100114.75;5028947;28;20049;-68
2021/06/10 07:25:08;;;;;;;7.43;6.20;;;;;;;25.89;35.52;100109.88;5029255;28;20057;-67
2021/06/10 07:27:34;;;;;;;8.57;5.93;;;;;;;26.14;35.69;100113.47;5029495;28;20555;-68
2021/06/10 07:30:00;;;;;;;10.45;5.60;;;;;;;26.49;34.27;100116.81;5029600;28;20519;-68
2021/06/10 07:32:26;;;;;;;8.65;6.15;;;;;;;26.86;33.84;100110.88;5029435;28;20030;-67
2021/06/10 07:34:51;;;;;;;10.23;7.43;;;;;;;27.12;33.76;100107.91;5029444;28;20072;-69
2021/06/10 07:37:17;;;;;;;9.95;7.53;;;;;;;27.58;33.52;100109.91;5029081;28;20473;-68
2021/06/10 07:39:42;;;;;;;9.18;7.72;;;;;;;28.34;32.83;100108.22;5029962;28;20029;-69
2021/06/10 07:42:09;;;;;;;13.32;8.30;;;;;;;28.35;31.17;100120.72;5029196;28;20033;-68
2021/06/10 07:44:34;;;;;;;15.70;11.40;;;;;;;28.70;31.72;100115.72;5029598;28;20123;-69
2021/06/10 07:47:00;;;;;;;10.18;7.65;;;;;;;29.11;30.85;100120.69;5029120;28;20037;-69
2021/06/10 07:49:25;;;;;;;9.50;7.18;;;;;;;28.67;31.02;100129.63;5028508;28;20037;-69
2021/06/10 07:51:50;;;;;;;14.60;8.65;;;;;;;28.90;31.20;100127.69;5029013;28;20439;-69
2021/06/10 07:54:16;;;;;;;9.15;7.03;;;;;;;28.97;31.08;100121.50;5029761;28;20068;-69
2021/06/10 07:56:41;;;;;;;8.85;6.13;;;;;;;29.39;30.28;100126.31;5029297;28;20045;-69
2021/06/10 07:59:07;;;;;;;19.80;8.70;;;;;;;29.39;30.51;100133.59;5029153;28;20385;-69
2021/06/10 08:01:32;;;;;;;12.93;6.88;;;;;;;29.36;31.07;100132.09;5029347;28;20037;-69
2021/06/10 08:03:58;;;;;;;7.85;6.25;;;;;;;29.31;30.72;100131.81;5029207;28;20045;-69
2021/06/10 08:06:23;;;;;;;11.80;6.88;;;;;;;29.34;30.96;100126.03;5029378;28;20752;-69
2021/06/10 08:08:49;;;;;;;10.95;8.07;;;;;;;29.53;31.27;100127.28;5029597;28;20046;-69
2021/06/10 08:11:15;;;;;;;12.85;7.65;;;;;;;29.65;30.90;100133.91;5031387;28;20064;-70
2021/06/10 08:13:40;;;;;;;52.70;13.30;;;;;;;29.87;30.46;100132.09;5023762;28;20053;-69
2021/06/10 08:16:06;;;;;;;17.25;7.57;;;;;;;29.82;30.78;100131.00;5033592;28;20499;-68
2021/06/10 08:18:32;;;;;;;8.45;6.88;;;;;;;30.09;29.98;100130.25;5044516;28;20036;-68
2021/06/10 08:20:59;;;;;;;9.93;7.55;;;;;;;30.32;29.49;100127.38;5029000;28;20092;-69
2021/06/10 08:23:26;;;;;;;9.60;7.68;;;;;;;30.38;29.36;100131.16;5029125;28;20032;-69
2021/06/10 08:25:54;;;;;;;9.05;6.50;;;;;;;30.42;29.05;100129.72;5029218;28;20569;-68
2021/06/10 08:28:19;;;;;;;7.95;4.50;;;;;;;30.31;28.51;100133.00;5032724;28;20037;-69
2021/06/10 08:30:45;;;;;;;5.72;4.88;;;;;;;30.14;28.10;100127.78;5034705;28;20052;-68
2021/06/10 08:33:10;;;;;;;6.18;4.22;;;;;;;29.60;29.37;100120.06;5033145;28;20041;-68
2021/06/10 08:35:36;;;;;;;10.00;5.28;;;;;;;29.09;29.92;100137.19;5032854;28;20044;-68
2021/06/10 08:38:05;;;;;;;9.48;5.03;;;;;;;29.00;29.96;100130.13;5032992;28;20041;-68
2021/06/10 08:40:31;;;;;;;11.18;6.20;;;;;;;28.94;30.28;100136.28;5033059;28;20037;-68
2021/06/10 08:42:57;;;;;;;6.03;5.30;;;;;;;29.12;30.03;100133.25;5032473;28;20044;-68
2021/06/10 08:45:28;;;;;;;8.48;5.60;;;;;;;29.40;29.44;100141.56;5033210;28;20039;-69
2021/06/10 08:47:54;;;;;;;5.65;4.63;;;;;;;29.45;29.39;100132.84;5032864;28;20041;-68
2021/06/10 08:50:23;;;;;;;6.57;5.38;;;;;;;29.74;29.41;100137.41;5032762;28;20093;-69
2021/06/10 08:52:52;;;;;;;6.38;4.20;;;;;;;29.38;29.23;100143.63;5033352;28;20041;-68
2021/06/10 08:55:19;;;;;;;15.35;4.05;;;;;;;29.69;29.23;100143.41;5032835;28;20111;-68
2021/06/10 08:57:45;;;;;;;4.97;3.78;;;;;;;29.80;28.94;100149.38;5032892;28;20117;-69
2021/06/10 09:00:11;;;;;;;6.80;4.30;;;;;;;29.77;28.25;100133.47;5029159;28;20109;-68
2021/06/10 09:02:37;;;;;;;5.72;3.42;;;;;;;30.32;27.62;100131.94;5031280;28;20445;-68
2021/06/10 09:05:11;;;;;;;5.88;3.00;;;;;;;30.72;26.79;100140.44;5032125;28;20041;-69
2021/06/10 09:07:39;;;;;;;7.72;3.13;;;;;;;31.06;26.48;100141.50;5032205;28;20029;-69
2021/06/10 09:10:07;;;;;;;4.75;3.33;;;;;;;31.61;25.72;100137.84;5032254;28;20551;-69
2021/06/10 09:12:47;;;;;;;5.15;2.78;;;;;;;32.05;24.90;100132.94;5032178;28;20037;-69
2021/06/10 09:15:12;;;;;;;4.55;2.80;;;;;;;32.21;24.66;100140.72;5032012;28;20033;-69
2021/06/10 09:17:40;;;;;;;5.93;2.83;;;;;;;32.49;24.53;100137.84;5031836;28;20037;-68
2021/06/10 09:20:17;;;;;;;4.93;2.88;;;;;;;32.62;24.10;100142.44;5032102;28;20489;-69
2021/06/10 09:22:43;;;;;;;9.98;3.15;;;;;;;33.00;23.99;100138.16;5031933;28;20034;-68
2021/06/10 09:25:11;;;;;;;12.20;3.67;;;;;;;33.32;24.26;100141.88;5031278;28;20033;-69
2021/06/10 09:27:52;;;;;;;4.30;3.75;;;;;;;33.61;23.42;100143.28;5029760;28;20119;-68
2021/06/10 09:30:34;;;;;;;7.18;4.90;;;;;;;33.82;23.46;100152.19;5031460;28;20396;-69
2021/06/10 09:33:01;;;;;;;9.60;4.22;;;;;;;33.69;23.82;100147.66;5031775;28;20029;-69
2021/06/10 09:35:28;;;;;;;7.68;4.35;;;;;;;33.81;23.68;100145.91;5031291;28;20033;-68
2021/06/10 09:38:03;;;;;;;6.22;5.30;;;;;;;33.73;23.86;100151.63;5029425;28;20463;-69
2021/06/10 09:40:29;;;;;;;14.82;6.65;;;;;;;33.65;24.48;100141.78;5032378;28;20044;-68
2021/06/10 09:42:55;;;;;;;8.00;7.20;;;;;;;33.35;24.70;100149.66;5031107;28;20038;-68
2021/06/10 09:45:24;;;;;;;6.68;5.07;;;;;;;33.40;25.10;100149.88;5031049;28;20033;-68
2021/06/10 09:47:52;;;;;;;8.73;5.10;;;;;;;33.63;25.07;100145.81;5030530;28;20048;-69
2021/06/10 09:50:23;;;;;;;13.43;5.35;;;;;;;33.88;25.01;100141.22;5031276;28;20029;-69
2021/06/10 09:52:54;;;;;;;12.85;5.40;;;;;;;33.74;24.67;100142.34;5031110;28;20029;-69
2021/06/10 09:55:26;;;;;;;7.32;4.25;;;;;;;32.40;26.61;100151.88;5030970;28;20063;-68
2021/06/10 09:57:52;;;;;;;11.43;4.53;;;;;;;31.90;27.16;100154.91;5031641;28;20041;-68
2021/06/10 10:00:27;;;;;;;7.05;5.13;;;;;;;32.02;26.58;100147.84;5031418;28;20040;-68
2021/06/10 10:02:53;;;;;;;8.25;5.28;;;;;;;32.36;26.47;100148.69;5031911;28;20099;-68
2021/06/10 10:05:22;;;;;;;6.22;4.28;;;;;;;32.79;26.07;100153.75;5032723;28;20469;-68
2021/06/10 10:07:49;;;;;;;5.47;3.67;;;;;;;32.69;25.02;100158.81;5029689;28;20061;-68
2021/06/10 10:10:15;;;;;;;5.60;4.10;;;;;;;32.83;25.30;100163.19;5031472;28;20045;-69
2021/06/10 10:12:43;;;;;;;6.72;4.40;;;;;;;32.18;26.29;100152.06;5030326;28;20033;-69
2021/06/10 10:15:09;;;;;;;7.10;3.15;;;;;;;31.09;27.33;100157.47;5030401;28;20033;-68
2021/06/10 10:17:35;;;;;;;7.32;3.67;;;;;;;31.41;26.58;100145.94;5028976;28;20400;-69
2021/06/10 10:20:04;;;;;;;9.98;3.58;;;;;;;31.88;26.33;100157.84;5030452;28;20546;-69
2021/06/10 10:22:30;;;;;;;6.25;3.17;;;;;;;32.24;25.51;100156.69;5029998;28;20124;-69
2021/06/10 10:24:58;;;;;;;7.22;3.72;;;;;;;32.51;25.99;100153.97;5030509;28;20124;-69
2021/06/10 10:27:23;;;;;;;5.65;3.42;;;;;;;32.44;25.50;100155.84;5030236;28;20029;-69
2021/06/10 10:29:49;;;;;;;20.10;8.55;;;;;;;32.56;25.08;100143.25;5030080;28;20103;-68
2021/06/10 10:32:27;;;;;;;4.35;3.05;;;;;;;32.53;25.27;100142.88;5030707;28;20049;-68
2021/06/10 10:34:53;;;;;;;4.03;3.20;;;;;;;32.81;25.38;100139.88;5028609;28;20565;-68
2021/06/10 10:37:26;;;;;;;9.15;4.53;;;;;;;32.84;25.37;100136.75;5029408;28;20038;-69
2021/06/10 10:39:54;;;;;;;4.82;3.65;;;;;;;32.85;24.94;100144.72;5029884;28;20042;-68
2021/06/10 10:42:30;;;;;;;6.53;2.90;;;;;;;32.57;25.69;100141.41;5029823;28;20037;-69
2021/06/10 10:45:16;;;;;;;9.43;3.15;;;;;;;32.45;25.91;100138.44;5029963;28;20037;-69
2021/06/10 10:47:45;;;;;;;5.03;3.10;;;;;;;32.70;25.48;100139.47;5030639;28;20532;-69
2021/06/10 10:50:17;;;;;;;4.38;2.53;;;;;;;32.95;25.13;100136.06;5029291;28;20034;-69
2021/06/10 10:52:56;;;;;;;10.45;3.67;;;;;;;33.01;25.04;100137.97;5029801;28;20080;-68
2021/06/10 10:55:29;;;;;;;10.88;4.70;;;;;;;33.03;25.35;100143.22;5029567;28;20052;-68
2021/06/10 10:58:02;;;;;;;8.43;3.85;;;;;;;31.81;26.73;100147.97;5029446;28;20065;-68
2021/06/10 11:00:55;;;;;;;7.40;4.15;;;;;;;31.56;27.10;100143.06;5029699;28;20034;-68
2021/06/10 11:03:37;;;;;;;5.65;4.00;;;;;;;31.03;27.14;100137.31;5028678;28;20038;-69
2021/06/10 11:06:20;;;;;;;10.05;4.00;;;;;;;30.55;27.99;100143.44;5029264;28;20488;-68
2021/06/10 11:09:15;;;;;;;6.25;4.97;;;;;;;30.15;28.66;100134.91;5029817;28;20083;-69
2021/06/10 11:12:01;;;;;;;9.65;4.43;;;;;;;29.86;29.76;100133.16;5029913;28;20087;-69
2021/06/10 11:14:44;;;;;;;8.50;4.25;;;;;;;29.76;29.66;100124.47;5029296;28;20053;-68
2021/06/10 11:17:32;;;;;;;6.93;6.00;;;;;;;29.28;30.20;100124.91;5029010;28;20424;-68
2021/06/10 11:20:07;;;;;;;9.23;6.40;;;;;;;28.88;31.51;100127.03;5009426;28;20505;-68
2021/06/10 11:22:38;;;;;;;5.53;4.78;;;;;;;29.06;31.21;100117.72;5008397;28;20034;-69
2021/06/10 11:25:10;;;;;;;9.77;5.53;;;;;;;28.80;31.26;100112.72;5009286;28;20036;-68